<?xml version="1.0" encoding="UTF-8" standalone="no" ?>
<gpx xmlns="http://www.topografix.com/GPX/1/1" xmlns:xsi="http://www.w3.org/2001/XMLSchema-instance" xsi:schemaLocation="http://www.topografix.com/GPX/1/1 http://www.topografix.com/GPX/1/1/gpx.xsd" version="1.1" creator="VisuGPX - https://www.visugpx.com">
  <metadata>
    <name>lac des perches par la basse bers</name>
    <desc><![CDATA[lac des perches depuis rimbach par la basse bers]]></desc>
  </metadata>
  <trk>
    <name><![CDATA[Sequence 2]]></name>
    <trkseg>
      <trkpt lat="47.84557" lon="6.92388">
        <ele>977.80004882812</ele>
        <time>2013-08-10T07:47:37Z</time>
      </trkpt>
      <trkpt lat="47.84549" lon="6.92417">
        <ele>981.90002441406</ele>
        <time>2013-08-10T07:48:10Z</time>
      </trkpt>
      <trkpt lat="47.8455" lon="6.9243">
        <ele>980.59997558594</ele>
        <time>2013-08-10T07:48:15Z</time>
      </trkpt>
      <trkpt lat="47.84531" lon="6.92457">
        <ele>990.30004882812</ele>
        <time>2013-08-10T07:48:41Z</time>
      </trkpt>
      <trkpt lat="47.84525" lon="6.92464">
        <ele>1016.5</ele>
        <time>2013-08-10T07:49:00Z</time>
      </trkpt>
      <trkpt lat="47.84527" lon="6.9242">
        <ele>1019.4000244141</ele>
        <time>2013-08-10T07:49:18Z</time>
      </trkpt>
      <trkpt lat="47.84542" lon="6.92396">
        <ele>1009</ele>
        <time>2013-08-10T07:49:45Z</time>
      </trkpt>
      <trkpt lat="47.84547" lon="6.92388">
        <ele>1008.4000244141</ele>
        <time>2013-08-10T07:49:55Z</time>
      </trkpt>
      <trkpt lat="47.84538" lon="6.9237">
        <ele>999</ele>
        <time>2013-08-10T07:50:29Z</time>
      </trkpt>
      <trkpt lat="47.84542" lon="6.92402">
        <ele>999.69995117188</ele>
        <time>2013-08-10T07:50:48Z</time>
      </trkpt>
      <trkpt lat="47.84512" lon="6.924">
        <ele>1004</ele>
        <time>2013-08-10T07:51:01Z</time>
      </trkpt>
      <trkpt lat="47.8449" lon="6.92428">
        <ele>1002</ele>
        <time>2013-08-10T07:51:24Z</time>
      </trkpt>
      <trkpt lat="47.8448" lon="6.92439">
        <ele>996.80004882812</ele>
        <time>2013-08-10T07:51:33Z</time>
      </trkpt>
      <trkpt lat="47.84452" lon="6.92453">
        <ele>978.90002441406</ele>
        <time>2013-08-10T07:51:57Z</time>
      </trkpt>
      <trkpt lat="47.84422" lon="6.92448">
        <ele>978.5</ele>
        <time>2013-08-10T07:52:19Z</time>
      </trkpt>
      <trkpt lat="47.8438" lon="6.92457">
        <ele>978.80004882812</ele>
        <time>2013-08-10T07:52:45Z</time>
      </trkpt>
      <trkpt lat="47.84391" lon="6.92488">
        <ele>973.79998779297</ele>
        <time>2013-08-10T07:53:30Z</time>
      </trkpt>
      <trkpt lat="47.84397" lon="6.92502">
        <ele>964.79998779297</ele>
        <time>2013-08-10T07:53:42Z</time>
      </trkpt>
      <trkpt lat="47.84404" lon="6.92545">
        <ele>969.20001220703</ele>
        <time>2013-08-10T07:54:07Z</time>
      </trkpt>
      <trkpt lat="47.84391" lon="6.92548">
        <ele>973.5</ele>
        <time>2013-08-10T07:54:24Z</time>
      </trkpt>
      <trkpt lat="47.84371" lon="6.92572">
        <ele>973.5</ele>
        <time>2013-08-10T07:54:43Z</time>
      </trkpt>
      <trkpt lat="47.84322" lon="6.9258">
        <ele>952.20001220703</ele>
        <time>2013-08-10T07:55:20Z</time>
      </trkpt>
      <trkpt lat="47.8432" lon="6.92581">
        <ele>951.59997558594</ele>
        <time>2013-08-10T07:55:22Z</time>
      </trkpt>
      <trkpt lat="47.84298" lon="6.92596">
        <ele>946.79998779297</ele>
        <time>2013-08-10T07:55:49Z</time>
      </trkpt>
      <trkpt lat="47.84246" lon="6.92575">
        <ele>927.70001220703</ele>
        <time>2013-08-10T07:56:14Z</time>
      </trkpt>
      <trkpt lat="47.8424" lon="6.92571">
        <ele>927.90002441406</ele>
        <time>2013-08-10T07:56:20Z</time>
      </trkpt>
      <trkpt lat="47.84201" lon="6.92572">
        <ele>917.90002441406</ele>
        <time>2013-08-10T07:56:50Z</time>
      </trkpt>
      <trkpt lat="47.84181" lon="6.92598">
        <ele>927.5</ele>
        <time>2013-08-10T07:57:13Z</time>
      </trkpt>
      <trkpt lat="47.84186" lon="6.92606">
        <ele>929.59997558594</ele>
        <time>2013-08-10T07:57:28Z</time>
      </trkpt>
      <trkpt lat="47.84194" lon="6.92621">
        <ele>932.90002441406</ele>
        <time>2013-08-10T07:57:35Z</time>
      </trkpt>
      <trkpt lat="47.84209" lon="6.92658">
        <ele>929</ele>
        <time>2013-08-10T07:57:48Z</time>
      </trkpt>
      <trkpt lat="47.84158" lon="6.92691">
        <ele>907.09997558594</ele>
        <time>2013-08-10T07:58:12Z</time>
      </trkpt>
      <trkpt lat="47.84141" lon="6.92703">
        <ele>892.5</ele>
        <time>2013-08-10T07:58:25Z</time>
      </trkpt>
      <trkpt lat="47.84111" lon="6.92701">
        <ele>903.5</ele>
        <time>2013-08-10T07:58:37Z</time>
      </trkpt>
      <trkpt lat="47.84075" lon="6.92681">
        <ele>888.20001220703</ele>
        <time>2013-08-10T07:59:06Z</time>
      </trkpt>
      <trkpt lat="47.84071" lon="6.92674">
        <ele>887.40002441406</ele>
        <time>2013-08-10T07:59:08Z</time>
      </trkpt>
      <trkpt lat="47.84054" lon="6.92625">
        <ele>882.59997558594</ele>
        <time>2013-08-10T07:59:36Z</time>
      </trkpt>
      <trkpt lat="47.84036" lon="6.92605">
        <ele>883.29998779297</ele>
        <time>2013-08-10T07:59:54Z</time>
      </trkpt>
      <trkpt lat="47.84004" lon="6.92582">
        <ele>885.70001220703</ele>
        <time>2013-08-10T08:00:08Z</time>
      </trkpt>
      <trkpt lat="47.83991" lon="6.92573">
        <ele>883.59997558594</ele>
        <time>2013-08-10T08:00:21Z</time>
      </trkpt>
      <trkpt lat="47.83981" lon="6.92552">
        <ele>891.40002441406</ele>
        <time>2013-08-10T08:00:31Z</time>
      </trkpt>
      <trkpt lat="47.83958" lon="6.92529">
        <ele>886.20001220703</ele>
        <time>2013-08-10T08:00:56Z</time>
      </trkpt>
      <trkpt lat="47.83934" lon="6.92532">
        <ele>867.90002441406</ele>
        <time>2013-08-10T08:01:23Z</time>
      </trkpt>
      <trkpt lat="47.83916" lon="6.92554">
        <ele>853.09997558594</ele>
        <time>2013-08-10T08:01:45Z</time>
      </trkpt>
      <trkpt lat="47.83907" lon="6.92555">
        <ele>853.40002441406</ele>
        <time>2013-08-10T08:02:13Z</time>
      </trkpt>
      <trkpt lat="47.83906" lon="6.92581">
        <ele>864.90002441406</ele>
        <time>2013-08-10T08:02:30Z</time>
      </trkpt>
      <trkpt lat="47.83892" lon="6.92593">
        <ele>859</ele>
        <time>2013-08-10T08:02:42Z</time>
      </trkpt>
      <trkpt lat="47.83908" lon="6.92651">
        <ele>850.90002441406</ele>
        <time>2013-08-10T08:03:02Z</time>
      </trkpt>
      <trkpt lat="47.83897" lon="6.92678">
        <ele>855.5</ele>
        <time>2013-08-10T08:03:26Z</time>
      </trkpt>
      <trkpt lat="47.83899" lon="6.92705">
        <ele>866.40002441406</ele>
        <time>2013-08-10T08:03:37Z</time>
      </trkpt>
      <trkpt lat="47.83902" lon="6.9275">
        <ele>868.09997558594</ele>
        <time>2013-08-10T08:03:51Z</time>
      </trkpt>
      <trkpt lat="47.83898" lon="6.92804">
        <ele>873.59997558594</ele>
        <time>2013-08-10T08:04:16Z</time>
      </trkpt>
      <trkpt lat="47.83888" lon="6.92817">
        <ele>883</ele>
        <time>2013-08-10T08:04:21Z</time>
      </trkpt>
      <trkpt lat="47.83876" lon="6.92839">
        <ele>860.90002441406</ele>
        <time>2013-08-10T08:04:42Z</time>
      </trkpt>
      <trkpt lat="47.83874" lon="6.92901">
        <ele>870.20001220703</ele>
        <time>2013-08-10T08:05:07Z</time>
      </trkpt>
      <trkpt lat="47.83888" lon="6.92935">
        <ele>859.29998779297</ele>
        <time>2013-08-10T08:05:18Z</time>
      </trkpt>
      <trkpt lat="47.83906" lon="6.92996">
        <ele>843.29998779297</ele>
        <time>2013-08-10T08:05:42Z</time>
      </trkpt>
      <trkpt lat="47.83919" lon="6.93028">
        <ele>857.20001220703</ele>
        <time>2013-08-10T08:05:56Z</time>
      </trkpt>
      <trkpt lat="47.83912" lon="6.93063">
        <ele>851.70001220703</ele>
        <time>2013-08-10T08:06:13Z</time>
      </trkpt>
      <trkpt lat="47.83913" lon="6.93077">
        <ele>849.70001220703</ele>
        <time>2013-08-10T08:06:17Z</time>
      </trkpt>
      <trkpt lat="47.83919" lon="6.9315">
        <ele>823.29998779297</ele>
        <time>2013-08-10T08:06:47Z</time>
      </trkpt>
      <trkpt lat="47.83934" lon="6.93167">
        <ele>821</ele>
        <time>2013-08-10T08:07:02Z</time>
      </trkpt>
      <trkpt lat="47.83953" lon="6.93195">
        <ele>823.29998779297</ele>
        <time>2013-08-10T08:07:20Z</time>
      </trkpt>
      <trkpt lat="47.83963" lon="6.93211">
        <ele>822.40002441406</ele>
        <time>2013-08-10T08:07:31Z</time>
      </trkpt>
      <trkpt lat="47.83981" lon="6.93261">
        <ele>815.29998779297</ele>
        <time>2013-08-10T08:07:58Z</time>
      </trkpt>
      <trkpt lat="47.8401" lon="6.9327">
        <ele>820.70001220703</ele>
        <time>2013-08-10T08:08:35Z</time>
      </trkpt>
      <trkpt lat="47.84032" lon="6.93299">
        <ele>808.09997558594</ele>
        <time>2013-08-10T08:08:55Z</time>
      </trkpt>
      <trkpt lat="47.84042" lon="6.93311">
        <ele>803.59997558594</ele>
        <time>2013-08-10T08:09:03Z</time>
      </trkpt>
      <trkpt lat="47.84064" lon="6.93342">
        <ele>800.59997558594</ele>
        <time>2013-08-10T08:09:14Z</time>
      </trkpt>
      <trkpt lat="47.84085" lon="6.93373">
        <ele>801.79998779297</ele>
        <time>2013-08-10T08:09:34Z</time>
      </trkpt>
      <trkpt lat="47.84112" lon="6.93412">
        <ele>799.70001220703</ele>
        <time>2013-08-10T08:09:55Z</time>
      </trkpt>
      <trkpt lat="47.8413" lon="6.93436">
        <ele>799.20001220703</ele>
        <time>2013-08-10T08:10:12Z</time>
      </trkpt>
      <trkpt lat="47.84164" lon="6.9346">
        <ele>800</ele>
        <time>2013-08-10T08:10:45Z</time>
      </trkpt>
      <trkpt lat="47.84181" lon="6.93465">
        <ele>801.70001220703</ele>
        <time>2013-08-10T08:10:55Z</time>
      </trkpt>
      <trkpt lat="47.84202" lon="6.93463">
        <ele>810.5</ele>
        <time>2013-08-10T08:11:10Z</time>
      </trkpt>
      <trkpt lat="47.84213" lon="6.93515">
        <ele>829.20001220703</ele>
        <time>2013-08-10T08:11:37Z</time>
      </trkpt>
      <trkpt lat="47.8422" lon="6.93548">
        <ele>824.29998779297</ele>
        <time>2013-08-10T08:11:51Z</time>
      </trkpt>
      <trkpt lat="47.84214" lon="6.93564">
        <ele>829.79998779297</ele>
        <time>2013-08-10T08:12:04Z</time>
      </trkpt>
      <trkpt lat="47.84222" lon="6.93628">
        <ele>826.70001220703</ele>
        <time>2013-08-10T08:12:31Z</time>
      </trkpt>
      <trkpt lat="47.84227" lon="6.9364">
        <ele>824.90002441406</ele>
        <time>2013-08-10T08:12:36Z</time>
      </trkpt>
      <trkpt lat="47.84233" lon="6.93712">
        <ele>797.79998779297</ele>
        <time>2013-08-10T08:13:08Z</time>
      </trkpt>
      <trkpt lat="47.8423" lon="6.93735">
        <ele>807.59997558594</ele>
        <time>2013-08-10T08:13:18Z</time>
      </trkpt>
      <trkpt lat="47.84229" lon="6.93767">
        <ele>801.40002441406</ele>
        <time>2013-08-10T08:13:39Z</time>
      </trkpt>
      <trkpt lat="47.84229" lon="6.93804">
        <ele>792.29998779297</ele>
        <time>2013-08-10T08:13:56Z</time>
      </trkpt>
      <trkpt lat="47.8423" lon="6.93839">
        <ele>788.90002441406</ele>
        <time>2013-08-10T08:14:15Z</time>
      </trkpt>
      <trkpt lat="47.84223" lon="6.93863">
        <ele>797.20001220703</ele>
        <time>2013-08-10T08:14:30Z</time>
      </trkpt>
      <trkpt lat="47.84233" lon="6.93936">
        <ele>792.29998779297</ele>
        <time>2013-08-10T08:14:59Z</time>
      </trkpt>
      <trkpt lat="47.84222" lon="6.9394">
        <ele>797.29998779297</ele>
        <time>2013-08-10T08:15:05Z</time>
      </trkpt>
      <trkpt lat="47.84214" lon="6.93966">
        <ele>798.09997558594</ele>
        <time>2013-08-10T08:15:20Z</time>
      </trkpt>
      <trkpt lat="47.84213" lon="6.94012">
        <ele>793.09997558594</ele>
        <time>2013-08-10T08:15:44Z</time>
      </trkpt>
      <trkpt lat="47.84198" lon="6.94039">
        <ele>789.09997558594</ele>
        <time>2013-08-10T08:15:57Z</time>
      </trkpt>
      <trkpt lat="47.84176" lon="6.94081">
        <ele>779.90002441406</ele>
        <time>2013-08-10T08:16:20Z</time>
      </trkpt>
      <trkpt lat="47.84173" lon="6.94098">
        <ele>782.20001220703</ele>
        <time>2013-08-10T08:16:29Z</time>
      </trkpt>
      <trkpt lat="47.84153" lon="6.94126">
        <ele>770.70001220703</ele>
        <time>2013-08-10T08:16:48Z</time>
      </trkpt>
      <trkpt lat="47.84123" lon="6.94174">
        <ele>750.70001220703</ele>
        <time>2013-08-10T08:17:18Z</time>
      </trkpt>
      <trkpt lat="47.84123" lon="6.94155">
        <ele>752.40002441406</ele>
        <time>2013-08-10T08:17:28Z</time>
      </trkpt>
      <trkpt lat="47.84118" lon="6.94174">
        <ele>747.90002441406</ele>
        <time>2013-08-10T08:18:05Z</time>
      </trkpt>
      <trkpt lat="47.84097" lon="6.9422">
        <ele>745.59997558594</ele>
        <time>2013-08-10T08:18:26Z</time>
      </trkpt>
      <trkpt lat="47.84078" lon="6.9425">
        <ele>742.29998779297</ele>
        <time>2013-08-10T08:18:42Z</time>
      </trkpt>
      <trkpt lat="47.8405" lon="6.9427">
        <ele>739.09997558594</ele>
        <time>2013-08-10T08:19:00Z</time>
      </trkpt>
      <trkpt lat="47.84029" lon="6.94265">
        <ele>743.40002441406</ele>
        <time>2013-08-10T08:19:11Z</time>
      </trkpt>
      <trkpt lat="47.83992" lon="6.94275">
        <ele>747.20001220703</ele>
        <time>2013-08-10T08:19:41Z</time>
      </trkpt>
      <trkpt lat="47.83985" lon="6.94273">
        <ele>748.5</ele>
        <time>2013-08-10T08:19:44Z</time>
      </trkpt>
      <trkpt lat="47.83944" lon="6.9426">
        <ele>743.40002441406</ele>
        <time>2013-08-10T08:20:27Z</time>
      </trkpt>
      <trkpt lat="47.83896" lon="6.94252">
        <ele>739.70001220703</ele>
        <time>2013-08-10T08:20:43Z</time>
      </trkpt>
      <trkpt lat="47.83894" lon="6.94254">
        <ele>736.09997558594</ele>
        <time>2013-08-10T08:20:48Z</time>
      </trkpt>
      <trkpt lat="47.8384" lon="6.94267">
        <ele>737.70001220703</ele>
        <time>2013-08-10T08:21:22Z</time>
      </trkpt>
      <trkpt lat="47.83824" lon="6.94262">
        <ele>740.40002441406</ele>
        <time>2013-08-10T08:21:29Z</time>
      </trkpt>
      <trkpt lat="47.83802" lon="6.94254">
        <ele>726.09997558594</ele>
        <time>2013-08-10T08:21:42Z</time>
      </trkpt>
      <trkpt lat="47.83767" lon="6.94252">
        <ele>722.5</ele>
        <time>2013-08-10T08:21:56Z</time>
      </trkpt>
      <trkpt lat="47.83749" lon="6.94253">
        <ele>719.90002441406</ele>
        <time>2013-08-10T08:22:06Z</time>
      </trkpt>
      <trkpt lat="47.83715" lon="6.94266">
        <ele>706.09997558594</ele>
        <time>2013-08-10T08:22:25Z</time>
      </trkpt>
      <trkpt lat="47.83704" lon="6.9427">
        <ele>711</ele>
        <time>2013-08-10T08:22:37Z</time>
      </trkpt>
      <trkpt lat="47.83698" lon="6.94286">
        <ele>704.09997558594</ele>
        <time>2013-08-10T08:22:48Z</time>
      </trkpt>
      <trkpt lat="47.83663" lon="6.94313">
        <ele>701.29998779297</ele>
        <time>2013-08-10T08:23:08Z</time>
      </trkpt>
      <trkpt lat="47.83656" lon="6.94325">
        <ele>708.09997558594</ele>
        <time>2013-08-10T08:23:15Z</time>
      </trkpt>
      <trkpt lat="47.83646" lon="6.94358">
        <ele>706.29998779297</ele>
        <time>2013-08-10T08:23:36Z</time>
      </trkpt>
      <trkpt lat="47.83612" lon="6.94354">
        <ele>710.79998779297</ele>
        <time>2013-08-10T08:23:48Z</time>
      </trkpt>
      <trkpt lat="47.83595" lon="6.94363">
        <ele>706.70001220703</ele>
        <time>2013-08-10T08:23:56Z</time>
      </trkpt>
      <trkpt lat="47.83579" lon="6.94385">
        <ele>705.40002441406</ele>
        <time>2013-08-10T08:24:06Z</time>
      </trkpt>
      <trkpt lat="47.83553" lon="6.94413">
        <ele>699.70001220703</ele>
        <time>2013-08-10T08:24:26Z</time>
      </trkpt>
      <trkpt lat="47.83519" lon="6.94455">
        <ele>696.79998779297</ele>
        <time>2013-08-10T08:24:55Z</time>
      </trkpt>
      <trkpt lat="47.83509" lon="6.94486">
        <ele>694</ele>
        <time>2013-08-10T08:25:09Z</time>
      </trkpt>
      <trkpt lat="47.8349" lon="6.94513">
        <ele>684.90002441406</ele>
        <time>2013-08-10T08:25:24Z</time>
      </trkpt>
      <trkpt lat="47.83488" lon="6.94521">
        <ele>686</ele>
        <time>2013-08-10T08:25:28Z</time>
      </trkpt>
      <trkpt lat="47.83442" lon="6.94548">
        <ele>681.70001220703</ele>
        <time>2013-08-10T08:25:57Z</time>
      </trkpt>
      <trkpt lat="47.8344" lon="6.94551">
        <ele>683.09997558594</ele>
        <time>2013-08-10T08:25:59Z</time>
      </trkpt>
      <trkpt lat="47.83408" lon="6.94596">
        <ele>677.90002441406</ele>
        <time>2013-08-10T08:26:27Z</time>
      </trkpt>
      <trkpt lat="47.83375" lon="6.94621">
        <ele>678.20001220703</ele>
        <time>2013-08-10T08:26:45Z</time>
      </trkpt>
      <trkpt lat="47.83367" lon="6.94626">
        <ele>672.90002441406</ele>
        <time>2013-08-10T08:26:52Z</time>
      </trkpt>
      <trkpt lat="47.83332" lon="6.94654">
        <ele>661.79998779297</ele>
        <time>2013-08-10T08:27:14Z</time>
      </trkpt>
      <trkpt lat="47.83327" lon="6.94677">
        <ele>655.79998779297</ele>
        <time>2013-08-10T08:27:21Z</time>
      </trkpt>
      <trkpt lat="47.83321" lon="6.94722">
        <ele>639.20001220703</ele>
        <time>2013-08-10T08:27:41Z</time>
      </trkpt>
      <trkpt lat="47.83294" lon="6.94726">
        <ele>640.29998779297</ele>
        <time>2013-08-10T08:27:52Z</time>
      </trkpt>
      <trkpt lat="47.83264" lon="6.94733">
        <ele>636.09997558594</ele>
        <time>2013-08-10T08:28:07Z</time>
      </trkpt>
      <trkpt lat="47.83248" lon="6.94742">
        <ele>633.09997558594</ele>
        <time>2013-08-10T08:28:17Z</time>
      </trkpt>
      <trkpt lat="47.83211" lon="6.94762">
        <ele>625</ele>
        <time>2013-08-10T08:28:45Z</time>
      </trkpt>
      <trkpt lat="47.83189" lon="6.94768">
        <ele>623.40002441406</ele>
        <time>2013-08-10T08:28:59Z</time>
      </trkpt>
      <trkpt lat="47.8317" lon="6.94773">
        <ele>619.40002441406</ele>
        <time>2013-08-10T08:29:07Z</time>
      </trkpt>
      <trkpt lat="47.83125" lon="6.94784">
        <ele>608.20001220703</ele>
        <time>2013-08-10T08:29:27Z</time>
      </trkpt>
      <trkpt lat="47.83096" lon="6.948">
        <ele>603.90002441406</ele>
        <time>2013-08-10T08:29:48Z</time>
      </trkpt>
      <trkpt lat="47.83079" lon="6.94808">
        <ele>604.79998779297</ele>
        <time>2013-08-10T08:30:00Z</time>
      </trkpt>
    </trkseg>
  </trk>
</gpx>